createdAt,value
2018-05-27T00:02:04.917Z,80.80
2018-05-27T00:04:34.162Z,81.10
2018-05-27T00:07:03.520Z,81.10
2018-05-27T00:09:32.817Z,80.90
2018-05-27T00:12:02.070Z,80.90
2018-05-27T00:14:31.371Z,81.00
2018-05-27T00:17:00.726Z,81.20
2018-05-27T00:19:30.031Z,81.30
2018-05-27T00:22:00.148Z,81.70
2018-05-27T00:24:29.552Z,81.40
2018-05-27T00:26:58.957Z,81.90
2018-05-27T00:29:29.019Z,81.40
2018-05-27T00:31:58.383Z,81.30
2018-05-27T00:34:28.501Z,81.70
2018-05-27T00:36:57.901Z,81.70
2018-05-27T00:39:27.307Z,82.00
2018-05-27T00:41:56.606Z,82.20
2018-05-27T00:44:26.009Z,82.10
2018-05-27T00:46:56.128Z,82.10
2018-05-27T00:49:25.464Z,82.80
2018-05-27T00:51:54.781Z,81.90
2018-05-27T00:54:24.140Z,81.90
2018-05-27T00:56:54.201Z,82.10
2018-05-27T00:59:23.456Z,82.00
2018-05-27T01:01:52.859Z,81.90
2018-05-27T01:04:22.984Z,82.80
2018-05-27T01:06:53.100Z,82.50
2018-05-27T01:09:22.389Z,82.10
2018-05-27T01:11:51.705Z,82.80
2018-05-27T01:14:22.858Z,83.80
2018-05-27T01:16:52.967Z,83.10
2018-05-27T01:19:22.375Z,83.00
2018-05-27T01:21:51.671Z,83.20
2018-05-27T01:24:21.075Z,83.20
2018-05-27T01:26:50.376Z,83.40
2018-05-27T01:29:19.788Z,83.20
2018-05-27T01:31:49.905Z,83.20
2018-05-27T01:34:20.021Z,83.30
2018-05-27T01:36:49.322Z,83.10
2018-05-27T01:39:19.443Z,83.20
2018-05-27T01:41:48.741Z,82.90
2018-05-27T01:44:18.147Z,82.90
2018-05-27T01:46:47.448Z,83.00
2018-05-27T01:49:16.852Z,83.00
2018-05-27T01:51:46.155Z,83.00
2018-05-27T01:54:15.455Z,83.10
2018-05-27T01:56:44.761Z,83.10
2018-05-27T01:59:14.877Z,83.10
2018-05-27T02:01:44.281Z,83.00
2018-05-27T02:04:13.580Z,83.20
2018-05-27T02:06:42.873Z,83.30
2018-05-27T02:09:12.185Z,83.20
2018-05-27T02:11:41.486Z,83.00
2018-05-27T02:14:10.803Z,82.80
2018-05-27T02:16:40.088Z,82.60
2018-05-27T02:19:09.491Z,82.50
2018-05-27T02:21:38.896Z,83.20
2018-05-27T02:24:08.202Z,82.40
2018-05-27T02:26:38.317Z,83.10
2018-05-27T02:29:07.617Z,82.60
2018-05-27T02:31:37.129Z,82.60
2018-05-27T02:34:07.245Z,83.40
2018-05-27T02:36:36.634Z,82.70
2018-05-27T02:39:06.666Z,82.60
2018-05-27T02:41:36.787Z,82.30
2018-05-27T02:44:06.088Z,82.50
2018-05-27T02:46:35.391Z,82.00
2018-05-27T02:49:04.791Z,82.20
2018-05-27T02:51:34.101Z,82.20
2018-05-27T02:54:04.215Z,82.90
2018-05-27T02:56:33.606Z,82.30
2018-05-27T02:59:02.996Z,82.50
2018-05-27T03:01:32.323Z,82.30
2018-05-27T03:04:01.728Z,82.30
2018-05-27T03:06:31.117Z,82.40
2018-05-27T03:09:00.432Z,82.50
2018-05-27T03:11:29.823Z,82.80
2018-05-27T03:13:59.139Z,83.20
2018-05-27T03:16:28.527Z,82.80
2018-05-27T03:18:57.846Z,83.10
2018-05-27T03:21:27.134Z,83.20
2018-05-27T03:23:56.443Z,84.00
2018-05-27T03:26:25.744Z,83.10
2018-05-27T03:28:55.046Z,83.10
2018-05-27T03:31:24.450Z,83.10
2018-05-27T03:33:53.752Z,83.10
2018-05-27T03:36:23.152Z,83.00
2018-05-27T03:38:52.457Z,83.60
2018-05-27T03:41:21.859Z,82.70
2018-05-27T03:43:51.160Z,83.20
2018-05-27T03:46:20.565Z,82.80
2018-05-27T03:48:49.967Z,83.00
2018-05-27T03:51:19.272Z,83.00
2018-05-27T03:53:48.672Z,83.20
2018-05-27T03:56:17.975Z,83.40
2018-05-27T03:58:49.017Z,83.60
2018-05-27T04:01:18.423Z,83.60
2018-05-27T04:04:05.398Z,83.80
2018-05-27T04:06:52.464Z,83.70
2018-05-27T04:09:22.575Z,83.80
2018-05-27T04:11:51.875Z,83.60
2018-05-27T04:14:21.176Z,83.50
2018-05-27T04:16:50.477Z,83.60
2018-05-27T04:19:19.780Z,83.70
2018-05-27T04:21:49.855Z,83.30
2018-05-27T04:24:19.200Z,83.20
2018-05-27T04:26:48.501Z,83.00
2018-05-27T04:29:17.750Z,82.90
2018-05-27T04:31:47.104Z,83.00
2018-05-27T04:34:16.404Z,83.10
2018-05-27T04:36:45.808Z,83.10
2018-05-27T04:39:15.062Z,83.20
2018-05-27T04:41:44.411Z,83.30
2018-05-27T04:44:13.711Z,83.40
2018-05-27T04:46:43.108Z,83.40
2018-05-27T04:49:12.423Z,83.60
2018-05-27T04:51:41.820Z,83.90
2018-05-27T04:54:11.329Z,84.10
2018-05-27T04:56:40.620Z,83.90
2018-05-27T04:59:09.971Z,83.10
2018-05-27T05:01:39.334Z,83.60
2018-05-27T05:04:08.740Z,83.10
2018-05-27T05:06:38.030Z,83.30
2018-05-27T05:09:07.345Z,82.80
2018-05-27T05:11:37.397Z,82.40
2018-05-27T05:14:06.706Z,82.40
2018-05-27T05:16:36.009Z,82.10
2018-05-27T05:19:05.364Z,81.90
2018-05-27T05:21:34.749Z,81.70
2018-05-27T05:24:04.068Z,81.50
2018-05-27T05:26:33.472Z,81.20
2018-05-27T05:29:02.871Z,80.70
2018-05-27T05:31:32.177Z,81.00
2018-05-27T05:34:01.478Z,81.00
2018-05-27T05:36:30.768Z,81.10
2018-05-27T05:39:00.082Z,80.40
2018-05-27T05:41:29.381Z,80.10
2018-05-27T05:43:58.683Z,80.90
2018-05-27T05:46:27.983Z,80.00
2018-05-27T05:48:57.388Z,79.30
2018-05-27T05:51:26.786Z,79.90
2018-05-27T05:53:56.099Z,78.90
2018-05-27T05:56:26.213Z,78.40
2018-05-27T05:58:55.507Z,78.30
2018-05-27T06:01:26.349Z,78.20
2018-05-27T06:03:55.640Z,78.10
2018-05-27T06:06:24.954Z,77.90
2018-05-27T06:08:54.257Z,77.60
2018-05-27T06:11:23.659Z,77.30
2018-05-27T06:13:52.960Z,78.00
2018-05-27T06:16:22.264Z,77.20
2018-05-27T06:18:51.665Z,77.10
2018-05-27T06:21:20.967Z,76.90
2018-05-27T06:23:50.268Z,77.20
2018-05-27T06:26:19.673Z,76.10
2018-05-27T06:28:49.017Z,75.80
2018-05-27T06:31:18.376Z,75.40
2018-05-27T06:33:47.724Z,75.10
2018-05-27T06:36:17.087Z,75.30
2018-05-27T06:38:47.189Z,75.00
2018-05-27T06:41:16.707Z,75.00
2018-05-27T06:43:46.114Z,74.90
2018-05-27T06:46:15.417Z,74.60
2018-05-27T06:48:44.730Z,75.00
2018-05-27T06:51:14.856Z,74.50
2018-05-27T06:53:44.125Z,74.50
2018-05-27T06:56:13.437Z,74.30
2018-05-27T06:58:42.731Z,73.00
2018-05-27T07:01:12.039Z,72.80
2018-05-27T07:03:42.876Z,72.10
2018-05-27T07:06:12.179Z,72.10
2018-05-27T07:08:41.524Z,71.40
2018-05-27T07:11:10.882Z,69.90
2018-05-27T07:13:40.276Z,71.00
2018-05-27T07:16:09.592Z,70.00
2018-05-27T07:18:38.991Z,69.40
2018-05-27T07:21:08.299Z,67.50
2018-05-27T07:23:38.411Z,67.70
2018-05-27T07:26:07.818Z,67.50
2018-05-27T07:28:37.937Z,67.10
2018-05-27T07:31:08.057Z,66.90
2018-05-27T07:33:37.460Z,66.90
2018-05-27T07:36:06.766Z,66.70
2018-05-27T07:38:36.882Z,65.70
2018-05-27T07:41:06.287Z,65.40
2018-05-27T07:43:36.406Z,65.30
2018-05-27T07:46:05.704Z,65.10
2018-05-27T07:48:36.545Z,65.10
2018-05-27T07:51:05.949Z,65.10
2018-05-27T07:53:35.249Z,64.70
2018-05-27T07:56:04.641Z,63.60
2018-05-27T07:58:35.489Z,64.30
2018-05-27T08:01:04.894Z,64.30
2018-05-27T08:03:34.964Z,62.30
2018-05-27T08:06:04.317Z,62.30
2018-05-27T08:08:33.720Z,62.60
2018-05-27T08:11:03.011Z,62.80
2018-05-27T08:13:32.321Z,62.40
2018-05-27T08:16:01.624Z,60.90
2018-05-27T08:18:31.026Z,61.30
2018-05-27T08:21:00.324Z,61.60
2018-05-27T08:23:29.615Z,63.20
2018-05-27T08:26:00.455Z,63.20
2018-05-27T08:28:29.770Z,63.20
2018-05-27T08:30:59.888Z,61.40
2018-05-27T08:33:29.950Z,60.10
2018-05-27T08:35:59.309Z,60.10
2018-05-27T08:38:28.609Z,60.70
2018-05-27T08:40:58.015Z,61.40
2018-05-27T08:43:27.331Z,61.90
2018-05-27T08:45:57.436Z,61.70
2018-05-27T08:48:26.942Z,61.70
2018-05-27T08:50:56.345Z,62.30
2018-05-27T08:53:25.672Z,61.10
2018-05-27T08:55:54.994Z,60.70
2018-05-27T08:58:24.356Z,62.00
2018-05-27T09:00:54.472Z,62.10
2018-05-27T09:03:23.820Z,62.10
2018-05-27T09:05:53.175Z,60.50
2018-05-27T09:08:22.421Z,59.50
2018-05-27T09:10:51.762Z,59.50
2018-05-27T09:13:20.992Z,59.50
2018-05-27T09:15:51.099Z,58.70
2018-05-27T09:18:20.386Z,58.60
2018-05-27T09:20:49.699Z,59.10
2018-05-27T09:23:18.992Z,58.30
2018-05-27T09:25:48.306Z,57.60
2018-05-27T09:28:17.599Z,57.70
2018-05-27T09:30:46.952Z,57.10
2018-05-27T09:33:16.207Z,56.90
2018-05-27T09:35:45.611Z,56.50
2018-05-27T09:38:15.120Z,56.60
2018-05-27T09:40:45.241Z,57.60
2018-05-27T09:43:16.177Z,56.80
2018-05-27T09:45:45.584Z,57.20
2018-05-27T09:48:14.974Z,57.00
2018-05-27T09:50:44.284Z,56.30
2018-05-27T09:53:13.792Z,56.30
2018-05-27T09:55:43.095Z,56.30
2018-05-27T09:58:12.450Z,55.80
2018-05-27T10:00:41.805Z,55.00
2018-05-27T10:03:11.918Z,54.60
2018-05-27T10:05:41.321Z,54.50
2018-05-27T10:08:10.725Z,54.70
2018-05-27T10:10:40.117Z,54.70
2018-05-27T10:13:09.431Z,54.10
2018-05-27T10:15:38.772Z,54.00
2018-05-27T10:18:08.033Z,54.60
2018-05-27T10:20:37.436Z,53.90
2018-05-27T10:23:06.743Z,53.40
2018-05-27T10:25:36.857Z,53.40
2018-05-27T10:28:06.152Z,53.30
2018-05-27T10:30:36.997Z,54.10
2018-05-27T10:33:06.298Z,54.10
2018-05-27T10:35:35.700Z,53.90
2018-05-27T10:38:05.105Z,54.50
2018-05-27T10:40:35.224Z,53.90
2018-05-27T10:43:04.575Z,53.60
2018-05-27T10:45:33.930Z,54.30
2018-05-27T10:48:03.377Z,53.90
2018-05-27T10:50:32.635Z,53.50
2018-05-27T10:53:02.039Z,53.20
2018-05-27T10:55:31.442Z,53.50
2018-05-27T10:58:00.842Z,52.80
2018-05-27T11:00:30.147Z,53.10
2018-05-27T11:02:59.448Z,53.70
2018-05-27T11:05:28.850Z,52.90
2018-05-27T11:07:58.155Z,53.20
2018-05-27T11:10:27.546Z,52.80
2018-05-27T11:12:56.961Z,52.60
2018-05-27T11:15:26.261Z,53.20
2018-05-27T11:17:55.669Z,52.60
2018-05-27T11:20:24.965Z,52.40
2018-05-27T11:22:54.268Z,51.90
2018-05-27T11:25:23.564Z,52.10
2018-05-27T11:27:52.871Z,52.40
2018-05-27T11:30:22.171Z,52.10
2018-05-27T11:32:51.473Z,51.10
2018-05-27T11:35:21.593Z,51.40
2018-05-27T11:37:50.845Z,51.10
2018-05-27T11:40:20.194Z,52.00
2018-05-27T11:42:49.541Z,52.50
2018-05-27T11:45:18.899Z,51.50
2018-05-27T11:47:48.302Z,51.00
2018-05-27T11:50:17.607Z,50.40
2018-05-27T11:52:47.715Z,50.30
2018-05-27T11:55:17.007Z,50.20
2018-05-27T11:57:46.320Z,49.00
2018-05-27T12:00:15.712Z,48.10
2018-05-27T12:02:44.977Z,48.10
2018-05-27T12:05:14.231Z,47.30
2018-05-27T12:07:44.294Z,48.70
2018-05-27T12:10:13.602Z,48.70
2018-05-27T12:12:42.940Z,48.60
2018-05-27T12:15:12.254Z,48.10
2018-05-27T12:17:42.316Z,45.50
2018-05-27T12:20:11.617Z,45.60
2018-05-27T12:22:40.978Z,47.60
2018-05-27T12:25:11.097Z,46.10
2018-05-27T12:27:40.504Z,46.10
2018-05-27T12:30:10.526Z,47.70
2018-05-27T12:32:40.639Z,48.20
2018-05-27T12:35:10.044Z,48.20
2018-05-27T12:37:39.344Z,48.00
2018-05-27T12:40:10.126Z,46.30
2018-05-27T12:42:39.483Z,46.20
2018-05-27T12:45:10.320Z,47.70
2018-05-27T12:47:41.097Z,46.70
2018-05-27T12:50:10.459Z,46.70
2018-05-27T12:52:39.867Z,46.10
2018-05-27T12:55:09.164Z,44.10
2018-05-27T12:57:38.567Z,45.10
2018-05-27T13:00:07.870Z,45.40
2018-05-27T13:02:37.158Z,45.60
2018-05-27T13:05:06.512Z,45.50
2018-05-27T13:07:35.875Z,42.80
2018-05-27T13:10:05.996Z,45.00
2018-05-27T13:12:35.399Z,44.40
2018-05-27T13:15:05.518Z,44.00
2018-05-27T13:17:35.627Z,44.60
2018-05-27T13:20:05.044Z,44.30
2018-05-27T13:22:34.446Z,45.20
2018-05-27T13:25:03.851Z,44.10
2018-05-27T13:27:33.971Z,45.30
2018-05-27T13:30:03.382Z,45.30
2018-05-27T13:32:33.437Z,46.70
2018-05-27T13:35:02.694Z,46.70
2018-05-27T13:37:31.979Z,46.90
2018-05-27T13:40:01.297Z,46.80
2018-05-27T13:42:30.584Z,45.70
2018-05-27T13:44:59.908Z,45.60
2018-05-27T13:47:29.302Z,45.00
2018-05-27T13:49:58.605Z,45.10
2018-05-27T13:52:28.724Z,46.20
2018-05-27T13:54:58.789Z,44.80
2018-05-27T13:57:28.089Z,44.10
2018-05-27T13:59:57.447Z,44.40
2018-05-27T14:02:26.749Z,44.30
2018-05-27T14:04:56.818Z,42.70
2018-05-27T14:07:26.176Z,42.60
2018-05-27T14:09:56.290Z,42.70
2018-05-27T14:12:27.128Z,44.20
2018-05-27T14:14:56.417Z,44.20
2018-05-27T14:17:25.737Z,42.90
2018-05-27T14:19:55.854Z,40.60
2018-05-27T14:22:25.254Z,40.40
2018-05-27T14:24:54.660Z,41.30
2018-05-27T14:27:24.779Z,41.80
2018-05-27T14:29:54.897Z,41.00
2018-05-27T14:32:24.301Z,41.40
2018-05-27T14:34:53.705Z,43.10
2018-05-27T14:37:23.009Z,42.70
2018-05-27T14:39:53.128Z,41.30
2018-05-27T14:42:23.251Z,42.40
2018-05-27T14:44:52.683Z,42.40
2018-05-27T14:47:22.772Z,41.30
2018-05-27T14:49:52.832Z,40.30
2018-05-27T14:52:22.137Z,40.30
2018-05-27T14:54:51.437Z,40.70
2018-05-27T14:57:20.797Z,41.00
2018-05-27T14:59:50.100Z,41.30
2018-05-27T15:02:19.392Z,42.80
2018-05-27T15:04:48.686Z,41.10
2018-05-27T15:07:18.050Z,42.20
2018-05-27T15:09:47.513Z,42.50
2018-05-27T15:12:16.916Z,42.50
2018-05-27T15:14:46.318Z,42.60
2018-05-27T15:17:15.661Z,42.50
2018-05-27T15:19:44.977Z,43.00
2018-05-27T15:22:14.319Z,43.60
2018-05-27T15:24:43.725Z,43.80
2018-05-27T15:27:13.789Z,42.80
2018-05-27T15:29:43.454Z,42.80
2018-05-27T15:32:13.545Z,43.20
2018-05-27T15:34:42.876Z,43.60
2018-05-27T15:37:15.717Z,44.00
2018-05-27T15:39:46.186Z,45.10
2018-05-27T15:42:15.594Z,45.10
2018-05-27T15:44:44.885Z,44.50
2018-05-27T15:47:14.302Z,44.20
2018-05-27T15:49:44.415Z,46.00
2018-05-27T15:52:13.818Z,45.80
2018-05-27T15:54:43.121Z,45.90
2018-05-27T15:57:12.525Z,45.80
2018-05-27T15:59:42.653Z,44.40
2018-05-27T16:02:12.708Z,44.30
2018-05-27T16:04:42.070Z,44.30
2018-05-27T16:07:12.188Z,43.60
2018-05-27T16:09:42.308Z,43.90
2018-05-27T16:12:11.711Z,43.90
2018-05-27T16:14:41.014Z,43.60
2018-05-27T16:17:10.416Z,44.40
2018-05-27T16:19:39.718Z,43.80
2018-05-27T16:22:09.024Z,43.40
2018-05-27T16:24:39.138Z,44.40
2018-05-27T16:27:08.429Z,44.30
2018-05-27T16:29:37.842Z,44.00
2018-05-27T16:32:07.137Z,43.50
2018-05-27T16:34:36.451Z,44.10
2018-05-27T16:37:05.849Z,44.70
2018-05-27T16:39:35.153Z,44.60
2018-05-27T16:42:04.556Z,44.90
2018-05-27T16:44:33.959Z,44.60
2018-05-27T16:47:03.258Z,45.60
2018-05-27T16:49:32.668Z,45.20
2018-05-27T16:52:01.962Z,46.80
2018-05-27T16:54:31.264Z,46.20
2018-05-27T16:57:00.569Z,46.30
2018-05-27T16:59:30.686Z,47.80
2018-05-27T17:01:59.992Z,47.00
2018-05-27T17:04:29.291Z,46.30
2018-05-27T17:06:58.795Z,47.00
2018-05-27T17:09:28.098Z,47.60
2018-05-27T17:11:58.217Z,48.40
2018-05-27T17:14:27.504Z,47.90
2018-05-27T17:16:56.820Z,48.50
2018-05-27T17:19:26.111Z,48.80
2018-05-27T17:21:55.426Z,50.00
2018-05-27T17:24:25.543Z,51.50
2018-05-27T17:26:54.843Z,50.80
2018-05-27T17:29:24.249Z,50.90
2018-05-27T17:31:53.546Z,51.40
2018-05-27T17:34:22.955Z,51.00
2018-05-27T17:36:53.013Z,51.00
2018-05-27T17:39:22.374Z,51.00
2018-05-27T17:41:51.753Z,51.20
2018-05-27T17:44:21.079Z,50.80
2018-05-27T17:46:50.483Z,51.50
2018-05-27T17:49:19.890Z,52.40
2018-05-27T17:51:49.294Z,53.10
2018-05-27T17:54:19.457Z,52.70
2018-05-27T17:56:48.813Z,53.20
2018-05-27T17:59:18.217Z,53.20
2018-05-27T18:01:47.518Z,52.90
2018-05-27T18:04:16.943Z,53.40
2018-05-27T18:06:46.268Z,52.30
2018-05-27T18:09:15.626Z,51.40
2018-05-27T18:11:45.035Z,51.80
2018-05-27T18:14:15.109Z,53.20
2018-05-27T18:16:44.393Z,52.60
2018-05-27T18:19:13.738Z,53.70
2018-05-27T18:21:44.579Z,54.70
2018-05-27T18:24:13.895Z,54.70
2018-05-27T18:26:43.295Z,55.40
2018-05-27T18:29:12.597Z,56.20
2018-05-27T18:31:42.000Z,56.70
2018-05-27T18:34:11.302Z,57.40
2018-05-27T18:36:40.705Z,57.10
2018-05-27T18:39:10.006Z,58.80
2018-05-27T18:41:39.308Z,58.40
2018-05-27T18:44:09.428Z,58.90
2018-05-27T18:46:39.547Z,59.00
2018-05-27T18:49:08.850Z,58.90
2018-05-27T18:51:38.255Z,59.20
2018-05-27T18:54:08.372Z,60.10
2018-05-27T18:56:37.636Z,59.80
2018-05-27T18:59:06.987Z,60.00
2018-05-27T19:01:36.277Z,61.30
2018-05-27T19:04:05.727Z,62.10
2018-05-27T19:06:34.986Z,62.00
2018-05-27T19:09:04.487Z,62.30
2018-05-27T19:11:33.893Z,62.50
2018-05-27T19:14:04.010Z,63.00
2018-05-27T19:16:33.417Z,63.50
2018-05-27T19:19:02.821Z,63.70
2018-05-27T19:21:32.223Z,64.00
2018-05-27T19:24:01.524Z,64.30
2018-05-27T19:26:30.869Z,64.80
2018-05-27T19:29:00.230Z,64.80
2018-05-27T19:31:29.633Z,64.90
2018-05-27T19:33:58.934Z,64.70
2018-05-27T19:36:28.338Z,64.30
2018-05-27T19:38:57.638Z,64.60
2018-05-27T19:41:31.960Z,63.80
2018-05-27T19:44:02.490Z,61.60
2018-05-27T19:46:32.029Z,61.60
2018-05-27T19:49:01.546Z,61.10
2018-05-27T19:51:30.904Z,60.70
2018-05-27T19:54:00.308Z,61.60
2018-05-27T19:56:30.378Z,62.30
2018-05-27T19:58:59.729Z,63.00
2018-05-27T20:01:29.030Z,65.00
2018-05-27T20:03:58.421Z,66.30
2018-05-27T20:06:27.738Z,67.10
2018-05-27T20:08:57.035Z,67.70
2018-05-27T20:11:26.338Z,67.50
2018-05-27T20:13:55.639Z,67.30
2018-05-27T20:16:25.041Z,67.80
2018-05-27T20:18:55.108Z,66.80
2018-05-27T20:21:24.463Z,66.10
2018-05-27T20:23:53.870Z,65.30
2018-05-27T20:26:23.988Z,64.50
2018-05-27T20:28:53.392Z,64.60
2018-05-27T20:31:22.795Z,64.10
2018-05-27T20:33:52.098Z,63.20
2018-05-27T20:36:22.203Z,62.70
2018-05-27T20:38:51.518Z,62.80
2018-05-27T20:41:20.921Z,62.60
2018-05-27T20:43:50.222Z,63.70
2018-05-27T20:46:19.628Z,63.80
2018-05-27T20:48:49.030Z,64.40
2018-05-27T20:51:19.150Z,65.80
2018-05-27T20:53:48.450Z,65.10
2018-05-27T20:56:17.850Z,66.30
2018-05-27T20:58:47.259Z,65.30
2018-05-27T21:01:16.558Z,66.30
2018-05-27T21:03:45.848Z,66.10
2018-05-27T21:06:15.161Z,66.60
2018-05-27T21:08:46.004Z,67.10
2018-05-27T21:11:15.431Z,67.10
2018-05-27T21:13:44.805Z,67.80
2018-05-27T21:16:14.210Z,67.00
2018-05-27T21:18:43.516Z,66.90
2018-05-27T21:21:13.631Z,66.60
2018-05-27T21:23:42.932Z,66.60
2018-05-27T21:26:12.336Z,66.70
2018-05-27T21:28:41.739Z,67.10
2018-05-27T21:31:11.040Z,67.50
2018-05-27T21:33:40.444Z,68.00
2018-05-27T21:36:09.745Z,69.30
2018-05-27T21:38:39.150Z,68.90
2018-05-27T21:41:08.449Z,69.00
2018-05-27T21:43:37.854Z,69.80
2018-05-27T21:46:07.206Z,69.30
2018-05-27T21:48:36.560Z,69.10
2018-05-27T21:51:05.967Z,69.60
2018-05-27T21:53:35.263Z,70.70
2018-05-27T21:56:04.682Z,70.10
2018-05-27T21:58:34.804Z,70.50
2018-05-27T22:01:05.010Z,70.30
2018-05-27T22:03:35.131Z,70.10
2018-05-27T22:06:04.535Z,70.50
2018-05-27T22:08:33.836Z,70.70
2018-05-27T22:11:03.239Z,70.80
2018-05-27T22:13:34.078Z,71.10
2018-05-27T22:16:03.374Z,71.00
2018-05-27T22:18:32.781Z,71.30
2018-05-27T22:21:02.186Z,71.40
2018-05-27T22:23:31.486Z,71.50
2018-05-27T22:26:00.889Z,71.40
2018-05-27T22:28:30.176Z,70.90
2018-05-27T22:30:59.493Z,70.60
2018-05-27T22:33:28.763Z,70.70
2018-05-27T22:35:58.097Z,70.60
2018-05-27T22:38:27.499Z,71.30
2018-05-27T22:40:56.801Z,71.80
2018-05-27T22:43:26.921Z,73.10
2018-05-27T22:45:56.222Z,72.30
2018-05-27T22:48:26.343Z,73.10
2018-05-27T22:50:55.746Z,73.10
2018-05-27T22:53:25.049Z,73.40
2018-05-27T22:55:54.861Z,73.40
2018-05-27T22:58:24.162Z,73.70
2018-05-27T23:00:53.565Z,73.60
2018-05-27T23:03:22.970Z,73.60
2018-05-27T23:05:52.235Z,74.50
2018-05-27T23:08:21.571Z,73.60
2018-05-27T23:10:50.866Z,73.30
2018-05-27T23:13:20.174Z,73.10
2018-05-27T23:15:49.577Z,73.10
2018-05-27T23:18:18.867Z,73.30
2018-05-27T23:20:48.284Z,73.40
2018-05-27T23:23:17.569Z,73.50
2018-05-27T23:25:46.989Z,73.20
2018-05-27T23:28:16.289Z,73.90
2018-05-27T23:30:45.690Z,74.10
2018-05-27T23:33:15.203Z,73.80
2018-05-27T23:35:44.496Z,73.60
2018-05-27T23:38:13.800Z,73.60
2018-05-27T23:40:43.104Z,73.60
2018-05-27T23:43:12.506Z,74.20
2018-05-27T23:45:42.626Z,74.30
2018-05-27T23:48:11.925Z,73.90
2018-05-27T23:50:41.229Z,74.70
2018-05-27T23:53:10.530Z,74.20
2018-05-27T23:55:39.932Z,74.20
2018-05-27T23:58:09.236Z,74.20
